createdAt,value
2017-04-04T00:00:00.367Z,46
2017-04-04T00:00:32.690Z,46.09
2017-04-04T00:01:05.814Z,46.19
2017-04-04T00:01:38.094Z,46
2017-04-04T00:02:10.334Z,45.9
2017-04-04T00:02:42.584Z,46
2017-04-04T00:03:14.819Z,46.09
2017-04-04T00:03:47.081Z,46
2017-04-04T00:04:19.327Z,46.19
2017-04-04T00:04:51.567Z,46.38
2017-04-04T00:05:24.755Z,46
2017-04-04T00:05:57.009Z,45.81
2017-04-04T00:06:29.260Z,46.28
2017-04-04T00:07:01.501Z,45.68
2017-04-04T00:07:33.742Z,46.19
2017-04-04T00:08:06.014Z,46.28
2017-04-04T00:08:38.254Z,46.48
2017-04-04T00:09:11.362Z,46.09
2017-04-04T00:09:43.607Z,46.48
2017-04-04T00:10:15.961Z,46.09
2017-04-04T00:10:48.258Z,46.38
2017-04-04T00:11:20.510Z,45.9
2017-04-04T00:11:52.770Z,46.48
2017-04-04T00:12:25.088Z,46.48
2017-04-04T00:12:57.439Z,46.26
2017-04-04T00:13:29.754Z,46
2017-04-04T00:14:02.084Z,46.19
2017-04-04T00:14:34.389Z,46.09
2017-04-04T00:15:06.700Z,46.26
2017-04-04T00:15:39.003Z,46.07
2017-04-04T00:16:11.336Z,46
2017-04-04T00:16:43.665Z,46.09
2017-04-04T00:17:15.983Z,46.38
2017-04-04T00:17:48.287Z,46.07
2017-04-04T00:18:20.583Z,46
2017-04-04T00:18:52.879Z,46
2017-04-04T00:19:25.191Z,46
2017-04-04T00:19:57.505Z,46.09
2017-04-04T00:20:29.826Z,46
2017-04-04T00:21:02.160Z,45.98
2017-04-04T00:21:34.465Z,46
2017-04-04T00:22:06.769Z,46
2017-04-04T00:22:39.937Z,46.38
2017-04-04T00:23:12.189Z,46
2017-04-04T00:23:44.428Z,46
2017-04-04T00:24:17.329Z,45.9
2017-04-04T00:24:49.572Z,45.81
2017-04-04T00:25:21.817Z,46.28
2017-04-04T00:25:54.067Z,46.38
2017-04-04T00:26:26.420Z,45.71
2017-04-04T00:26:58.662Z,45.9
2017-04-04T00:27:30.899Z,46.09
2017-04-04T00:28:03.140Z,45.88
2017-04-04T00:28:35.414Z,45.81
2017-04-04T00:29:07.696Z,45.9
2017-04-04T00:29:40.066Z,46.28
2017-04-04T00:30:12.312Z,45.9
2017-04-04T00:30:44.565Z,45.9
2017-04-04T00:31:16.902Z,45.9
2017-04-04T00:31:49.167Z,46.48
2017-04-04T00:32:21.473Z,45.9
2017-04-04T00:32:53.774Z,45.88
2017-04-04T00:33:26.077Z,45.81
2017-04-04T00:33:58.408Z,46.28
2017-04-04T00:34:30.713Z,45.88
2017-04-04T00:35:03.053Z,45.81
2017-04-04T00:35:35.383Z,45.9
2017-04-04T00:36:07.706Z,46
2017-04-04T00:36:40.022Z,45.9
2017-04-04T00:37:12.361Z,46
2017-04-04T00:37:44.678Z,46.28
2017-04-04T00:38:16.990Z,46
2017-04-04T00:38:49.295Z,46.28
2017-04-04T00:39:21.596Z,45.9
2017-04-04T00:39:53.910Z,46.19
2017-04-04T00:40:26.215Z,45.9
2017-04-04T00:40:58.530Z,45.9
2017-04-04T00:41:30.840Z,46.28
2017-04-04T00:42:03.163Z,45.81
2017-04-04T00:42:35.469Z,45.78
2017-04-04T00:43:07.707Z,46.28
2017-04-04T00:43:39.949Z,46.28
2017-04-04T00:44:12.177Z,46.19
2017-04-04T00:44:44.410Z,46.09
2017-04-04T00:45:17.250Z,46
2017-04-04T00:45:49.551Z,46.19
2017-04-04T00:46:21.797Z,46.09
2017-04-04T00:46:54.048Z,45.81
2017-04-04T00:47:26.304Z,45.81
2017-04-04T00:47:58.557Z,46.19
2017-04-04T00:48:30.796Z,46.09
2017-04-04T00:49:03.853Z,46.09
2017-04-04T00:49:36.109Z,46
2017-04-04T00:50:08.352Z,45.71
2017-04-04T00:50:40.633Z,45.81
2017-04-04T00:51:12.885Z,46.17
2017-04-04T00:51:45.144Z,46.17
2017-04-04T00:52:17.388Z,45.81
2017-04-04T00:52:49.648Z,46.38
2017-04-04T00:53:21.918Z,45.81
2017-04-04T00:53:54.930Z,46.19
2017-04-04T00:54:27.162Z,45.9
2017-04-04T00:54:59.392Z,46.09
2017-04-04T00:55:31.661Z,45.9
2017-04-04T00:56:04.000Z,46
2017-04-04T00:56:36.250Z,46.19
2017-04-04T00:57:09.384Z,46.19
2017-04-04T00:57:41.632Z,46.19
2017-04-04T00:58:13.873Z,46.19
2017-04-04T00:58:46.118Z,46
2017-04-04T00:59:18.382Z,46.28
2017-04-04T00:59:50.625Z,46.09
2017-04-04T01:00:22.875Z,46.19
2017-04-04T01:00:55.158Z,45.9
2017-04-04T01:01:27.404Z,45.88
2017-04-04T01:01:59.662Z,45.98
2017-04-04T01:02:31.967Z,46.19
2017-04-04T01:03:04.284Z,45.98
2017-04-04T01:03:36.603Z,46.19
2017-04-04T01:04:08.917Z,46.07
2017-04-04T01:04:41.241Z,46.17
2017-04-04T01:05:13.555Z,46.17
2017-04-04T01:05:45.870Z,46.26
2017-04-04T01:06:18.179Z,46.17
2017-04-04T01:06:50.500Z,46.26
2017-04-04T01:07:22.807Z,46.09
2017-04-04T01:07:55.130Z,46.28
2017-04-04T01:08:27.450Z,46.17
2017-04-04T01:08:59.766Z,46.17
2017-04-04T01:09:32.073Z,46.07
2017-04-04T01:10:04.385Z,45.88
2017-04-04T01:10:36.687Z,46.07
2017-04-04T01:11:08.989Z,46.07
2017-04-04T01:11:41.309Z,46.36
2017-04-04T01:12:13.622Z,46.07
2017-04-04T01:12:45.943Z,46.26
2017-04-04T01:13:18.253Z,46.26
2017-04-04T01:13:50.545Z,46.17
2017-04-04T01:14:22.852Z,46.07
2017-04-04T01:14:55.201Z,46.07
2017-04-04T01:15:27.519Z,46.07
2017-04-04T01:15:59.818Z,46.17
2017-04-04T01:16:32.120Z,46.07
2017-04-04T01:17:04.416Z,46.17
2017-04-04T01:17:36.723Z,46.36
2017-04-04T01:18:09.030Z,46.07
2017-04-04T01:18:41.358Z,46.17
2017-04-04T01:19:13.674Z,46.17
2017-04-04T01:19:45.988Z,46.45
2017-04-04T01:20:18.307Z,46.07
2017-04-04T01:20:50.631Z,46.17
2017-04-04T01:21:22.956Z,46.26
2017-04-04T01:21:55.278Z,46.26
2017-04-04T01:22:27.598Z,46.26
2017-04-04T01:22:59.905Z,46.07
2017-04-04T01:23:32.211Z,46.36
2017-04-04T01:24:04.522Z,46.17
2017-04-04T01:24:36.889Z,46.17
2017-04-04T01:25:09.197Z,46.17
2017-04-04T01:25:41.530Z,46.17
2017-04-04T01:26:13.862Z,46.17
2017-04-04T01:26:46.179Z,46.07
2017-04-04T01:27:18.495Z,46.36
2017-04-04T01:27:50.813Z,46.07
2017-04-04T01:28:23.132Z,46.26
2017-04-04T01:28:55.449Z,46.26
2017-04-04T01:29:27.762Z,46.17
2017-04-04T01:30:00.080Z,46.07
2017-04-04T01:30:32.394Z,46.36
2017-04-04T01:31:04.707Z,46.26
2017-04-04T01:31:37.044Z,46.17
2017-04-04T01:32:09.361Z,46.17
2017-04-04T01:32:41.670Z,46.36
2017-04-04T01:33:13.923Z,46.36
2017-04-04T01:33:46.207Z,46.36
2017-04-04T01:34:18.464Z,46.36
2017-04-04T01:34:50.726Z,46.36
2017-04-04T01:35:22.975Z,46.17
2017-04-04T01:35:55.227Z,46.17
2017-04-04T01:36:27.487Z,46.45
2017-04-04T01:36:59.830Z,46.45
2017-04-04T01:37:32.082Z,46.36
2017-04-04T01:38:04.901Z,46.07
2017-04-04T01:38:37.225Z,46.45
2017-04-04T01:39:09.463Z,46.36
2017-04-04T01:39:41.707Z,46.55
2017-04-04T01:40:13.951Z,46.36
2017-04-04T01:40:46.899Z,46.36
2017-04-04T01:41:19.164Z,46.55
2017-04-04T01:41:51.417Z,46.26
2017-04-04T01:42:23.735Z,46.65
2017-04-04T01:42:56.039Z,46.55
2017-04-04T01:43:28.348Z,46.55
2017-04-04T01:44:00.669Z,46.65
2017-04-04T01:44:32.985Z,46.26
2017-04-04T01:45:05.303Z,46.45
2017-04-04T01:45:37.599Z,46.55
2017-04-04T01:46:09.933Z,46.36
2017-04-04T01:46:42.264Z,46.65
2017-04-04T01:47:14.588Z,46.26
2017-04-04T01:47:46.905Z,46.36
2017-04-04T01:48:19.222Z,46.65
2017-04-04T01:48:51.526Z,46.65
2017-04-04T01:49:23.826Z,46.36
2017-04-04T01:49:56.137Z,46.65
2017-04-04T01:50:28.425Z,46.26
2017-04-04T01:51:00.749Z,46.17
2017-04-04T01:51:33.056Z,46.65
2017-04-04T01:52:05.361Z,46.36
2017-04-04T01:52:37.657Z,45.98
2017-04-04T01:53:09.964Z,46.07
2017-04-04T01:53:42.272Z,46.36
2017-04-04T01:54:14.578Z,46.65
2017-04-04T01:54:46.887Z,46.17
2017-04-04T01:55:19.205Z,46.65
2017-04-04T01:55:51.501Z,46.65
2017-04-04T01:56:23.858Z,46.45
2017-04-04T01:56:56.178Z,46.36
2017-04-04T01:57:28.488Z,46.36
2017-04-04T01:58:00.795Z,45.98
2017-04-04T01:58:33.108Z,46.65
2017-04-04T01:59:05.422Z,46.65
2017-04-04T01:59:37.759Z,46.36
2017-04-04T02:00:10.069Z,46.07
2017-04-04T02:00:42.379Z,46.07
2017-04-04T02:01:14.700Z,46.65
2017-04-04T02:01:47.003Z,46.26
2017-04-04T02:02:19.301Z,46.45
2017-04-04T02:02:51.603Z,46.07
2017-04-04T02:03:23.931Z,46.65
2017-04-04T02:03:56.255Z,46.36
2017-04-04T02:04:28.560Z,46.36
2017-04-04T02:05:00.874Z,46.65
2017-04-04T02:05:33.194Z,46.45
2017-04-04T02:06:05.491Z,45.98
2017-04-04T02:06:37.871Z,46.07
2017-04-04T02:07:10.176Z,46.65
2017-04-04T02:07:42.473Z,46.17
2017-04-04T02:08:14.785Z,46.14
2017-04-04T02:08:47.081Z,46.07
2017-04-04T02:09:19.395Z,46.17
2017-04-04T02:09:51.720Z,46.84
2017-04-04T02:10:24.029Z,46.45
2017-04-04T02:10:56.349Z,46.05
2017-04-04T02:11:28.672Z,46.26
2017-04-04T02:12:00.989Z,46.07
2017-04-04T02:12:33.242Z,46.17
2017-04-04T02:13:05.481Z,46.45
2017-04-04T02:13:38.264Z,46.07
2017-04-04T02:14:10.538Z,46.07
2017-04-04T02:14:43.359Z,46.65
2017-04-04T02:15:15.664Z,45.98
2017-04-04T02:15:47.927Z,46.55
2017-04-04T02:16:20.165Z,46.36
2017-04-04T02:16:52.406Z,46.17
2017-04-04T02:17:25.411Z,46.53
2017-04-04T02:17:57.661Z,46.05
2017-04-04T02:18:29.922Z,45.95
2017-04-04T02:19:02.161Z,46.07
2017-04-04T02:19:34.400Z,46.43
2017-04-04T02:20:06.649Z,46.34
2017-04-04T02:20:38.908Z,46.05
2017-04-04T02:21:11.167Z,46.62
2017-04-04T02:21:43.429Z,46.34
2017-04-04T02:22:15.687Z,46.36
2017-04-04T02:22:47.940Z,46.14
2017-04-04T02:23:20.169Z,46.72
2017-04-04T02:23:52.423Z,46.05
2017-04-04T02:24:24.680Z,46.53
2017-04-04T02:24:56.933Z,46.72
2017-04-04T02:25:29.180Z,46.62
2017-04-04T02:26:01.420Z,46.72
2017-04-04T02:26:34.283Z,46.34
2017-04-04T02:27:06.576Z,46.05
2017-04-04T02:27:38.811Z,46.53
2017-04-04T02:28:11.057Z,46.72
2017-04-04T02:28:43.363Z,46.36
2017-04-04T02:29:15.596Z,46.53
2017-04-04T02:29:49.275Z,46.43
2017-04-04T02:30:21.668Z,46.72
2017-04-04T02:30:53.917Z,46.53
2017-04-04T02:31:26.167Z,46.34
2017-04-04T02:31:58.428Z,46.34
2017-04-04T02:32:30.714Z,46.43
2017-04-04T02:33:03.882Z,46.43
2017-04-04T02:33:36.772Z,46.43
2017-04-04T02:34:09.027Z,46.43
2017-04-04T02:34:41.916Z,46.34
2017-04-04T02:35:14.168Z,46.34
2017-04-04T02:35:46.421Z,46.43
2017-04-04T02:36:18.669Z,46.62
2017-04-04T02:36:50.922Z,46.53
2017-04-04T02:37:23.272Z,46.53
2017-04-04T02:37:55.528Z,46.53
2017-04-04T02:38:27.782Z,46.62
2017-04-04T02:39:00.041Z,46.43
2017-04-04T02:39:32.282Z,46.43
2017-04-04T02:40:04.535Z,46.62
2017-04-04T02:40:36.787Z,46.53
2017-04-04T02:41:09.052Z,46.24
2017-04-04T02:41:41.828Z,46.34
2017-04-04T02:42:14.103Z,46.53
2017-04-04T02:42:46.478Z,46.53
2017-04-04T02:43:18.809Z,46.72
2017-04-04T02:43:51.143Z,46.53
2017-04-04T02:44:23.476Z,46.53
2017-04-04T02:44:55.826Z,46.43
2017-04-04T02:45:28.120Z,46.43
2017-04-04T02:46:00.421Z,46.34
2017-04-04T02:46:32.728Z,46.62
2017-04-04T02:47:05.039Z,46.62
2017-04-04T02:47:37.357Z,46.43
2017-04-04T02:48:09.674Z,46.53
2017-04-04T02:48:41.973Z,46.43
2017-04-04T02:49:14.276Z,46.53
2017-04-04T02:49:46.575Z,46.43
2017-04-04T02:50:18.886Z,46.43
2017-04-04T02:50:51.180Z,46.43
2017-04-04T02:51:23.488Z,46.43
2017-04-04T02:51:55.795Z,46.34
2017-04-04T02:52:28.111Z,46.43
2017-04-04T02:53:00.435Z,46.43
2017-04-04T02:53:32.751Z,46.43
2017-04-04T02:54:05.052Z,46.43
2017-04-04T02:54:37.369Z,46.34
2017-04-04T02:55:09.667Z,46.34
2017-04-04T02:55:41.985Z,46.43
2017-04-04T02:56:14.279Z,46.53
2017-04-04T02:56:46.583Z,46.43
2017-04-04T02:57:18.898Z,46.34
2017-04-04T02:57:51.221Z,46.43
2017-04-04T02:58:23.573Z,46.34
2017-04-04T02:58:55.887Z,46.43
2017-04-04T02:59:28.188Z,46.43
2017-04-04T03:00:00.543Z,46.34
2017-04-04T03:00:32.849Z,46.53
2017-04-04T03:01:05.177Z,46.34
2017-04-04T03:01:37.493Z,46.34
2017-04-04T03:02:09.797Z,46.53
2017-04-04T03:02:42.045Z,46.62
2017-04-04T03:03:14.283Z,46.81
2017-04-04T03:03:46.525Z,46.62
2017-04-04T03:04:18.840Z,46.43
2017-04-04T03:04:51.084Z,46.43
2017-04-04T03:05:23.327Z,46.81
2017-04-04T03:05:55.621Z,46.34
2017-04-04T03:06:27.858Z,46.62
2017-04-04T03:07:00.116Z,46.53
2017-04-04T03:07:32.356Z,46.53
2017-04-04T03:08:05.421Z,46.53
2017-04-04T03:08:37.686Z,46.62
2017-04-04T03:09:09.932Z,46.62
2017-04-04T03:09:42.178Z,46.53
2017-04-04T03:10:14.444Z,46.43
2017-04-04T03:10:46.691Z,46.62
2017-04-04T03:11:18.944Z,46.43
2017-04-04T03:11:51.207Z,46.62
2017-04-04T03:12:23.507Z,46.53
2017-04-04T03:12:55.825Z,46.72
2017-04-04T03:13:28.144Z,46.62
2017-04-04T03:14:00.473Z,46.53
2017-04-04T03:14:32.785Z,46.62
2017-04-04T03:15:05.091Z,46.72
2017-04-04T03:15:37.388Z,46.53
2017-04-04T03:16:09.687Z,46.62
2017-04-04T03:16:41.992Z,46.62
2017-04-04T03:17:14.357Z,46.62
2017-04-04T03:17:46.663Z,46.72
2017-04-04T03:18:18.974Z,46.43
2017-04-04T03:18:51.277Z,46.72
2017-04-04T03:19:23.572Z,46.53
2017-04-04T03:19:55.886Z,46.53
2017-04-04T03:20:28.182Z,46.62
2017-04-04T03:21:00.497Z,46.72
2017-04-04T03:21:32.804Z,46.72
2017-04-04T03:22:05.118Z,46.53
2017-04-04T03:22:37.429Z,46.62
2017-04-04T03:23:09.733Z,46.43
2017-04-04T03:23:42.035Z,46.53
2017-04-04T03:24:14.349Z,46.62
2017-04-04T03:24:46.650Z,46.72
2017-04-04T03:25:18.965Z,46.62
2017-04-04T03:25:51.285Z,46.62
2017-04-04T03:26:23.609Z,46.34
2017-04-04T03:26:55.919Z,46.72
2017-04-04T03:27:28.241Z,46.53
2017-04-04T03:28:00.549Z,46.43
2017-04-04T03:28:32.864Z,46.53
2017-04-04T03:29:05.171Z,46.72
2017-04-04T03:29:37.461Z,46.43
2017-04-04T03:30:09.767Z,46.53
2017-04-04T03:30:42.093Z,46.62
2017-04-04T03:31:14.392Z,46.34
2017-04-04T03:31:46.721Z,46.72
2017-04-04T03:32:19.056Z,46.81
2017-04-04T03:32:51.365Z,46.43
2017-04-04T03:33:23.683Z,46.53
2017-04-04T03:33:55.981Z,46.53
2017-04-04T03:34:28.284Z,46.43
2017-04-04T03:35:00.606Z,46.53
2017-04-04T03:35:32.904Z,46.62
2017-04-04T03:36:05.215Z,46.72
2017-04-04T03:36:37.551Z,46.53
2017-04-04T03:37:09.877Z,46.53
2017-04-04T03:37:42.182Z,46.53
2017-04-04T03:38:14.498Z,46.43
2017-04-04T03:38:46.813Z,46.72
2017-04-04T03:39:19.131Z,46.43
2017-04-04T03:39:51.438Z,46.24
2017-04-04T03:40:23.753Z,46.53
2017-04-04T03:40:56.056Z,46.62
2017-04-04T03:41:28.368Z,46.72
2017-04-04T03:42:00.686Z,46.72
2017-04-04T03:42:32.944Z,46.72
2017-04-04T03:43:05.193Z,46.72
2017-04-04T03:43:37.417Z,47.01
2017-04-04T03:44:09.666Z,46.62
2017-04-04T03:44:41.905Z,46.72
2017-04-04T03:45:14.167Z,46.91
2017-04-04T03:45:47.291Z,46.81
2017-04-04T03:46:19.567Z,46.91
2017-04-04T03:46:51.848Z,46.91
2017-04-04T03:47:24.095Z,46.91
2017-04-04T03:47:56.337Z,46.43
2017-04-04T03:48:28.572Z,46.91
2017-04-04T03:49:00.818Z,46.43
2017-04-04T03:49:33.079Z,46.91
2017-04-04T03:50:05.406Z,46.43
2017-04-04T03:50:37.695Z,46.81
2017-04-04T03:51:10.912Z,46.43
2017-04-04T03:51:43.152Z,46.43
2017-04-04T03:52:15.419Z,46.43
2017-04-04T03:52:47.739Z,46.43
2017-04-04T03:53:20.063Z,46.72
2017-04-04T03:53:52.367Z,46.62
2017-04-04T03:54:24.687Z,46.72
2017-04-04T03:54:57.009Z,46.72
2017-04-04T03:55:29.330Z,46.91
2017-04-04T03:56:01.653Z,46.72
2017-04-04T03:56:33.960Z,46.43
2017-04-04T03:57:06.271Z,46.34
2017-04-04T03:57:38.570Z,46.43
2017-04-04T03:58:10.872Z,46.72
2017-04-04T03:58:43.176Z,46.34
2017-04-04T03:59:15.493Z,46.43
2017-04-04T03:59:47.795Z,46.62
2017-04-04T04:00:20.107Z,46.43
2017-04-04T04:00:52.426Z,46.53
2017-04-04T04:01:24.757Z,46.43
2017-04-04T04:01:57.054Z,46.53
2017-04-04T04:02:29.305Z,46.72
2017-04-04T04:03:01.596Z,46.72
2017-04-04T04:03:33.838Z,46.24
2017-04-04T04:04:06.865Z,46.53
2017-04-04T04:04:39.098Z,46.62
2017-04-04T04:05:11.350Z,46.53
2017-04-04T04:05:44.373Z,46.53
2017-04-04T04:06:17.503Z,47.01
2017-04-04T04:06:49.754Z,46.53
2017-04-04T04:07:22.508Z,46.53
2017-04-04T04:07:55.453Z,46.43
2017-04-04T04:08:27.707Z,46.62
2017-04-04T04:08:59.961Z,46.53
2017-04-04T04:09:32.208Z,46.62
2017-04-04T04:10:04.451Z,46.72
2017-04-04T04:10:36.686Z,46.72
2017-04-04T04:11:08.929Z,46.34
2017-04-04T04:11:41.195Z,46.24
2017-04-04T04:12:13.494Z,46.72
2017-04-04T04:12:45.799Z,46.72
2017-04-04T04:13:18.104Z,46.43
2017-04-04T04:13:50.425Z,46.81
2017-04-04T04:14:22.744Z,46.43
2017-04-04T04:14:55.077Z,46.34
2017-04-04T04:15:27.401Z,46.43
2017-04-04T04:15:59.758Z,46.43
2017-04-04T04:16:32.060Z,46.43
2017-04-04T04:17:04.374Z,46.81
2017-04-04T04:17:36.704Z,46.91
2017-04-04T04:18:09.028Z,46.43
2017-04-04T04:18:41.315Z,46.43
2017-04-04T04:19:13.611Z,46.62
2017-04-04T04:19:45.919Z,46.62
2017-04-04T04:20:18.228Z,46.91
2017-04-04T04:20:50.573Z,46.81
2017-04-04T04:21:22.879Z,46.62
2017-04-04T04:21:55.211Z,46.81
2017-04-04T04:22:27.520Z,46.91
2017-04-04T04:22:59.837Z,46.81
2017-04-04T04:23:32.171Z,46.53
2017-04-04T04:24:04.504Z,46.62
2017-04-04T04:24:36.824Z,46.43
2017-04-04T04:25:09.123Z,46.53
2017-04-04T04:25:41.441Z,46.72
2017-04-04T04:26:13.774Z,46.91
2017-04-04T04:26:46.062Z,46.72
2017-04-04T04:27:18.395Z,46.81
2017-04-04T04:27:50.709Z,46.91
2017-04-04T04:28:23.030Z,46.81
2017-04-04T04:28:55.347Z,46.72
2017-04-04T04:29:27.640Z,46.81
2017-04-04T04:29:59.939Z,46.72
2017-04-04T04:30:32.266Z,46.91
2017-04-04T04:31:04.588Z,46.72
2017-04-04T04:31:36.894Z,46.62
2017-04-04T04:32:09.199Z,46.81
2017-04-04T04:32:41.472Z,46.62
2017-04-04T04:33:13.714Z,46.62
2017-04-04T04:33:46.037Z,46.81
2017-04-04T04:34:18.285Z,46.81
2017-04-04T04:34:50.543Z,46.91
2017-04-04T04:35:22.809Z,46.91
2017-04-04T04:35:55.076Z,46.81
2017-04-04T04:36:27.321Z,46.53
2017-04-04T04:36:59.565Z,46.81
2017-04-04T04:37:31.808Z,46.53
2017-04-04T04:38:04.810Z,46.81
2017-04-04T04:38:37.110Z,46.81
2017-04-04T04:39:09.430Z,46.81
2017-04-04T04:39:41.689Z,46.53
2017-04-04T04:40:13.938Z,46.91
2017-04-04T04:40:46.189Z,46.81
2017-04-04T04:41:18.551Z,46.81
2017-04-04T04:41:50.797Z,46.43
2017-04-04T04:42:23.055Z,46.53
2017-04-04T04:42:55.343Z,46.91
2017-04-04T04:43:27.586Z,46.81
2017-04-04T04:43:59.824Z,46.91
2017-04-04T04:44:32.071Z,46.91
2017-04-04T04:45:05.298Z,46.81
2017-04-04T04:45:37.660Z,46.34
2017-04-04T04:46:09.923Z,46.81
2017-04-04T04:46:42.201Z,46.91
2017-04-04T04:47:14.507Z,46.81
2017-04-04T04:47:46.749Z,46.62
2017-04-04T04:48:19.036Z,46.81
2017-04-04T04:48:51.297Z,46.62
2017-04-04T04:49:23.533Z,46.62
2017-04-04T04:49:55.765Z,46.81
2017-04-04T04:50:28.033Z,46.91
2017-04-04T04:51:00.272Z,46.81
2017-04-04T04:51:32.513Z,46.91
2017-04-04T04:52:04.751Z,46.81
2017-04-04T04:52:37.001Z,46.91
2017-04-04T04:53:09.268Z,46.81
2017-04-04T04:53:41.509Z,46.62
2017-04-04T04:54:13.759Z,46.72
2017-04-04T04:54:46.018Z,46.91
2017-04-04T04:55:18.872Z,46.81
2017-04-04T04:55:51.143Z,46.81
2017-04-04T04:56:23.383Z,46.72
2017-04-04T04:56:55.636Z,46.43
2017-04-04T04:57:28.521Z,46.72
2017-04-04T04:58:00.774Z,46.91
2017-04-04T04:58:33.018Z,46.72
2017-04-04T04:59:05.266Z,46.62
2017-04-04T04:59:37.523Z,46.81
2017-04-04T05:00:09.767Z,46.91
2017-04-04T05:00:42.056Z,46.81
2017-04-04T05:01:14.320Z,46.53
2017-04-04T05:01:46.605Z,46.91
2017-04-04T05:02:18.868Z,46.91
2017-04-04T05:02:51.118Z,46.53
2017-04-04T05:03:23.386Z,46.62
2017-04-04T05:03:56.324Z,46.72
2017-04-04T05:04:28.576Z,46.91
2017-04-04T05:05:01.485Z,46.81
2017-04-04T05:05:34.379Z,46.62
2017-04-04T05:06:06.614Z,46.81
2017-04-04T05:06:38.866Z,46.72
2017-04-04T05:07:11.122Z,46.91
2017-04-04T05:07:43.344Z,46.81
2017-04-04T05:08:15.591Z,46.53
2017-04-04T05:08:47.832Z,46.81
2017-04-04T05:09:20.089Z,46.62
2017-04-04T05:09:52.336Z,46.91
2017-04-04T05:10:24.569Z,46.91
2017-04-04T05:10:57.486Z,46.53
2017-04-04T05:11:29.720Z,46.91
2017-04-04T05:12:02.036Z,46.81
2017-04-04T05:12:34.288Z,46.91
2017-04-04T05:13:06.562Z,46.81
2017-04-04T05:13:38.809Z,46.91
2017-04-04T05:14:11.062Z,46.81
2017-04-04T05:14:43.307Z,46.72
2017-04-04T05:15:15.544Z,46.81
2017-04-04T05:15:47.777Z,46.81
2017-04-04T05:16:20.029Z,46.81
2017-04-04T05:16:52.294Z,46.62
2017-04-04T05:17:25.031Z,46.91
2017-04-04T05:17:57.986Z,46.62
2017-04-04T05:18:30.274Z,46.81
2017-04-04T05:19:02.540Z,46.34
2017-04-04T05:19:34.782Z,46.81
2017-04-04T05:20:07.033Z,46.81
2017-04-04T05:20:39.282Z,46.91
2017-04-04T05:21:11.655Z,46.81
2017-04-04T05:21:43.904Z,46.72
2017-04-04T05:22:16.168Z,46.91
2017-04-04T05:22:48.488Z,46.91
2017-04-04T05:23:20.803Z,46.53
2017-04-04T05:23:53.114Z,46.81
2017-04-04T05:24:25.425Z,46.72
2017-04-04T05:24:57.734Z,47.01
2017-04-04T05:25:30.043Z,46.81
2017-04-04T05:26:02.343Z,46.81
2017-04-04T05:26:34.681Z,46.62
2017-04-04T05:27:07.027Z,46.34
2017-04-04T05:27:39.339Z,46.62
2017-04-04T05:28:11.642Z,46.91
2017-04-04T05:28:43.960Z,46.72
2017-04-04T05:29:16.277Z,46.43
2017-04-04T05:29:48.602Z,46.72
2017-04-04T05:30:20.911Z,46.72
2017-04-04T05:30:53.220Z,46.81
2017-04-04T05:31:25.529Z,46.62
2017-04-04T05:31:57.853Z,46.91
2017-04-04T05:32:30.183Z,46.43
2017-04-04T05:33:03.290Z,46.72
2017-04-04T05:33:35.971Z,46.43
2017-04-04T05:34:08.292Z,46.62
2017-04-04T05:34:41.479Z,46.72
2017-04-04T05:35:13.782Z,46.81
2017-04-04T05:35:46.094Z,47.01
2017-04-04T05:36:18.426Z,46.91
2017-04-04T05:36:50.718Z,46.81
2017-04-04T05:37:23.041Z,46.43
2017-04-04T05:37:55.340Z,46.53
2017-04-04T05:38:27.657Z,46.43
2017-04-04T05:38:59.972Z,46.62
2017-04-04T05:39:32.286Z,47.01
2017-04-04T05:40:04.619Z,46.53
2017-04-04T05:40:36.930Z,46.72
2017-04-04T05:41:09.236Z,46.34
2017-04-04T05:41:41.558Z,46.81
2017-04-04T05:42:13.862Z,46.53
2017-04-04T05:42:46.170Z,46.62
2017-04-04T05:43:18.460Z,47.01
2017-04-04T05:43:50.764Z,46.91
2017-04-04T05:44:24.013Z,46.91
2017-04-04T05:44:56.325Z,46.62
2017-04-04T05:45:28.702Z,46.43
2017-04-04T05:46:01.034Z,46.72
2017-04-04T05:46:33.395Z,46.34
2017-04-04T05:47:05.922Z,46.43
2017-04-04T05:47:38.232Z,46.91
2017-04-04T05:48:10.556Z,46.43
2017-04-04T05:48:42.868Z,46.43
2017-04-04T05:49:15.206Z,46.53
2017-04-04T05:49:47.542Z,46.43
2017-04-04T05:50:19.848Z,46.43
2017-04-04T05:50:52.156Z,46.91
2017-04-04T05:51:24.497Z,46.43
2017-04-04T05:51:56.814Z,46.72
2017-04-04T05:52:29.110Z,46.34
2017-04-04T05:53:01.447Z,46.81
2017-04-04T05:53:33.809Z,46.43
2017-04-04T05:54:06.139Z,46.72
2017-04-04T05:54:38.445Z,46.72
2017-04-04T05:55:10.847Z,46.24
2017-04-04T05:55:43.161Z,46.34
2017-04-04T05:56:15.503Z,46.72
2017-04-04T05:56:48.615Z,46.43
2017-04-04T05:57:21.065Z,46.53
2017-04-04T05:57:53.400Z,46.53
2017-04-04T05:58:25.734Z,46.43
2017-04-04T05:58:58.036Z,46.36
2017-04-04T05:59:30.349Z,46.53
2017-04-04T06:00:02.659Z,46.55
2017-04-04T06:00:34.960Z,46.43
2017-04-04T06:01:07.290Z,46.62
2017-04-04T06:01:39.636Z,46.72
2017-04-04T06:02:11.937Z,46.53
2017-04-04T06:02:44.211Z,46.53
2017-04-04T06:03:17.361Z,46.55
2017-04-04T06:03:49.622Z,46.72
2017-04-04T06:04:23.463Z,46.55
2017-04-04T06:04:55.697Z,46.45
2017-04-04T06:05:27.957Z,46.36
2017-04-04T06:06:00.233Z,46.36
2017-04-04T06:06:33.369Z,46.55
2017-04-04T06:07:05.670Z,46.45
2017-04-04T06:07:37.955Z,46.26
2017-04-04T06:08:10.273Z,46.45
2017-04-04T06:08:45.430Z,46.45
2017-04-04T06:09:17.681Z,46.55
2017-04-04T06:09:49.964Z,46.26
2017-04-04T06:10:22.215Z,46.36
2017-04-04T06:10:54.467Z,46.45
2017-04-04T06:11:26.740Z,46.45
2017-04-04T06:11:58.989Z,46.45
2017-04-04T06:12:32.087Z,46.65
2017-04-04T06:13:05.475Z,46.55
2017-04-04T06:13:38.662Z,46.55
2017-04-04T06:14:11.177Z,46.55
2017-04-04T06:14:46.086Z,46.55
2017-04-04T06:15:18.409Z,46.45
2017-04-04T06:15:51.974Z,46.65
2017-04-04T06:16:25.090Z,46.65
2017-04-04T06:16:57.365Z,46.65
2017-04-04T06:17:30.608Z,46.65
2017-04-04T06:18:03.793Z,46.65
2017-04-04T06:18:37.112Z,46.36
2017-04-04T06:19:10.278Z,46.45
2017-04-04T06:19:44.960Z,46.26
2017-04-04T06:20:17.209Z,46.45
2017-04-04T06:20:49.443Z,46.26
2017-04-04T06:21:21.701Z,46.55
2017-04-04T06:21:53.969Z,46.26
2017-04-04T06:22:26.215Z,46.45
2017-04-04T06:22:58.501Z,46.36
2017-04-04T06:23:30.753Z,46.36
2017-04-04T06:24:03.063Z,46.26
2017-04-04T06:24:36.015Z,45.98
2017-04-04T06:25:08.440Z,46.09
2017-04-04T06:25:40.736Z,46.28
2017-04-04T06:26:13.011Z,46.17
2017-04-04T06:26:45.291Z,46.28
2017-04-04T06:27:17.685Z,46.28
2017-04-04T06:27:49.939Z,46.19
2017-04-04T06:28:22.181Z,46.38
2017-04-04T06:28:55.031Z,46
2017-04-04T06:29:27.281Z,46.09
2017-04-04T06:30:00.409Z,46.09
2017-04-04T06:30:32.655Z,46
2017-04-04T06:31:04.905Z,46
2017-04-04T06:31:37.157Z,46.19
2017-04-04T06:32:09.431Z,46
2017-04-04T06:32:41.751Z,45.9
2017-04-04T06:33:14.087Z,46
2017-04-04T06:33:46.417Z,46.09
2017-04-04T06:34:18.728Z,46.19
2017-04-04T06:34:51.029Z,46.09
2017-04-04T06:35:23.338Z,46.09
2017-04-04T06:35:55.825Z,46.09
2017-04-04T06:36:28.138Z,45.9
2017-04-04T06:37:00.454Z,45.9
2017-04-04T06:37:32.755Z,45.9
2017-04-04T06:38:05.062Z,46.28
2017-04-04T06:38:37.422Z,46.09
2017-04-04T06:39:09.732Z,45.9
2017-04-04T06:39:42.044Z,46.38
2017-04-04T06:40:14.364Z,46.02
2017-04-04T06:40:46.688Z,46
2017-04-04T06:41:19.007Z,46.09
2017-04-04T06:41:51.322Z,46.09
2017-04-04T06:42:23.643Z,46.31
2017-04-04T06:42:55.952Z,46.12
2017-04-04T06:43:28.308Z,46.5
2017-04-04T06:44:00.638Z,45.92
2017-04-04T06:44:32.970Z,46.31
2017-04-04T06:45:05.335Z,46.31
2017-04-04T06:45:37.669Z,46.31
2017-04-04T06:46:09.983Z,45.92
2017-04-04T06:48:01.661Z,46.21
2017-04-04T06:48:33.963Z,46.21
2017-04-04T06:49:06.278Z,46.12
2017-04-04T06:49:38.599Z,46.02
2017-04-04T06:50:10.901Z,46.12
2017-04-04T06:50:43.244Z,46.21
2017-04-04T06:51:17.013Z,46.21
2017-04-04T06:51:49.329Z,46.12
2017-04-04T06:52:22.599Z,46.12
2017-04-04T06:52:54.898Z,45.83
2017-04-04T06:53:29.054Z,46.21
2017-04-04T06:54:01.345Z,45.73
2017-04-04T06:54:33.658Z,46.14
2017-04-04T06:55:06.081Z,46.21
2017-04-04T06:55:38.405Z,45.83
2017-04-04T06:56:10.725Z,45.83
2017-04-04T06:56:43.050Z,46.23
2017-04-04T06:57:15.357Z,46.23
2017-04-04T06:57:47.672Z,46.14
2017-04-04T06:58:19.990Z,46.33
2017-04-04T06:58:53.091Z,45.95
2017-04-04T06:59:26.389Z,46.43
2017-04-04T06:59:58.723Z,46.33